Time;durP1;ratioP1;P1;durP2;ratioP2;P2;SDS_P1;SDS_P2;PMS_P1;PMS_P2;Temp;Humidity;BMP_temperature;BMP_pressure;BME280_temperature;BME280_humidity;BME280_pressure;Samples;Min_cycle;Max_cycle;Signal;HPM_P1;HPM_P2
2024/01/19 00:02:15;;;;;;;;;;;16.00;50.60;;;;;;10370746;28;97506;-65
2024/01/19 00:07:17;;;;;;;;;;;16.00;50.90;;;;;;10359090;28;93543;-64
2024/01/19 00:12:19;;;;;;;;;;;15.90;51.00;;;;;;10370316;28;93376;-64
2024/01/19 00:17:20;;;;;;;;;;;16.00;50.80;;;;;;10366346;28;92598;-64
2024/01/19 00:22:22;;;;;;;;;;;16.00;50.50;;;;;;10346087;28;93471;-63
2024/01/19 00:27:24;;;;;;;;;;;16.00;50.20;;;;;;10353900;28;94474;-65
2024/01/19 00:32:26;;;;;;;;;;;16.00;50.10;;;;;;10354808;28;95824;-65
2024/01/19 00:37:28;;;;;;;;;;;15.90;49.90;;;;;;10346391;28;93752;-64
2024/01/19 00:42:30;;;;;;;;;;;15.90;49.80;;;;;;10351509;28;93471;-64
2024/01/19 00:47:32;;;;;;;;;;;15.90;49.80;;;;;;10354274;28;93670;-64
2024/01/19 00:52:35;;;;;;;;;;;15.90;49.90;;;;;;10358469;28;93665;-64
2024/01/19 00:57:37;;;;;;;;;;;15.80;50.50;;;;;;10343090;28;93546;-65
2024/01/19 01:02:38;;;;;;;;;;;15.90;50.60;;;;;;10362826;28;94871;-64
2024/01/19 01:07:40;;;;;;;;;;;16.00;50.40;;;;;;10353527;28;92540;-64
2024/01/19 01:12:42;;;;;;;;;;;16.00;50.20;;;;;;10355638;28;94367;-64
2024/01/19 01:17:44;;;;;;;;;;;16.00;49.90;;;;;;10367390;28;93399;-64
2024/01/19 01:22:46;;;;;;;;;;;16.00;49.60;;;;;;10349321;28;97189;-64
2024/01/19 01:27:48;;;;;;;;;;;16.00;49.40;;;;;;10349085;28;94446;-64
2024/01/19 01:32:50;;;;;;;;;;;16.00;49.40;;;;;;10346163;28;93856;-64
2024/01/19 01:37:52;;;;;;;;;;;16.00;49.30;;;;;;10348616;28;92840;-64
2024/01/19 01:43:00;;;;;;;;;;;15.90;49.10;;;;;;10345812;28;93441;-64
2024/01/19 01:48:03;;;;;;;;;;;15.90;49.60;;;;;;10347261;28;93463;-65
2024/01/19 01:53:05;;;;;;;;;;;15.80;50.20;;;;;;10355226;28;94842;-64
2024/01/19 01:58:08;;;;;;;;;;;15.90;50.10;;;;;;10359417;28;94054;-64
2024/01/19 02:03:10;;;;;;;;;;;15.90;49.90;;;;;;10678065;22;95045;-62
2024/01/19 02:08:12;;;;;;;;;;;16.00;49.60;;;;;;10307963;28;94634;-62
2024/01/19 02:13:14;;;;;;;;;;;16.00;49.40;;;;;;10330007;28;95869;-62
2024/01/19 02:18:16;;;;;;;;;;;16.00;49.10;;;;;;10327049;28;94181;-62
2024/01/19 02:23:19;;;;;;;;;;;16.00;48.90;;;;;;10322555;28;94497;-62
2024/01/19 02:28:21;;;;;;;;;;;15.90;49.00;;;;;;10322594;28;93754;-62
2024/01/19 02:33:23;;;;;;;;;;;15.90;48.90;;;;;;10321307;28;94437;-62
2024/01/19 02:38:25;;;;;;;;;;;15.80;48.80;;;;;;10319870;28;93828;-62
2024/01/19 02:43:27;;;;;;;;;;;15.80;49.50;;;;;;10329048;28;93407;-62
2024/01/19 02:48:29;;;;;;;;;;;15.80;49.70;;;;;;10319367;28;93681;-62
2024/01/19 02:53:31;;;;;;;;;;;15.80;49.70;;;;;;10324629;28;93457;-62
2024/01/19 02:58:34;;;;;;;;;;;15.80;49.50;;;;;;10325639;28;93522;-62
2024/01/19 03:03:36;;;;;;;;;;;15.80;49.40;;;;;;10319766;28;95199;-62
2024/01/19 03:08:38;;;;;;;;;;;15.70;49.20;;;;;;10315926;28;92957;-62
2024/01/19 03:13:40;;;;;;;;;;;15.70;49.20;;;;;;10316680;28;93916;-61
2024/01/19 03:18:42;;;;;;;;;;;15.70;49.10;;;;;;10318711;28;94451;-62
2024/01/19 03:23:44;;;;;;;;;;;15.70;50.00;;;;;;10315957;28;94360;-62
2024/01/19 03:28:45;;;;;;;;;;;15.70;48.80;;;;;;10318516;28;94577;-61
2024/01/19 03:33:48;;;;;;;;;;;15.70;48.80;;;;;;10316153;28;93594;-62
2024/01/19 03:38:51;;;;;;;;;;;15.70;49.20;;;;;;10320889;28;92565;-62
2024/01/19 03:43:53;;;;;;;;;;;15.60;49.60;;;;;;10317638;28;94714;-62
2024/01/19 03:48:54;;;;;;;;;;;15.60;49.70;;;;;;10319908;28;93979;-62
2024/01/19 03:53:57;;;;;;;;;;;15.70;49.40;;;;;;10318359;28;95805;-62
2024/01/19 03:58:59;;;;;;;;;;;15.90;49.00;;;;;;10337647;28;93487;-62
2024/01/19 04:04:00;;;;;;;;;;;16.00;48.80;;;;;;10315026;28;93382;-62
2024/01/19 04:09:02;;;;;;;;;;;16.10;48.50;;;;;;10320185;28;93903;-62
2024/01/19 04:14:06;;;;;;;;;;;16.00;48.30;;;;;;10325920;28;94083;-62
2024/01/19 04:19:07;;;;;;;;;;;16.00;48.20;;;;;;10317243;28;93421;-62
2024/01/19 04:24:09;;;;;;;;;;;16.00;48.20;;;;;;10336145;28;94341;-63
2024/01/19 04:29:12;;;;;;;;;;;15.90;48.20;;;;;;10328921;28;93022;-63
2024/01/19 04:34:25;;;;;;;;;;;15.90;48.80;;;;;;10335082;28;92705;-62
2024/01/19 04:39:27;;;;;;;;;;;15.80;49.20;;;;;;10329819;28;94671;-62
2024/01/19 04:44:30;;;;;;;;;;;15.70;50.10;;;;;;10330882;28;95756;-62
2024/01/19 04:49:32;;;;;;;;;;;15.70;49.10;;;;;;10332505;28;94540;-63
2024/01/19 04:54:36;;;;;;;;;;;15.70;49.00;;;;;;10336183;28;97156;-62
2024/01/19 04:59:38;;;;;;;;;;;15.60;49.00;;;;;;10320104;28;93506;-62
2024/01/19 05:04:40;;;;;;;;;;;15.70;49.00;;;;;;10318451;28;94515;-63
2024/01/19 05:09:42;;;;;;;;;;;15.70;48.80;;;;;;10319283;28;93971;-63
2024/01/19 05:14:47;;;;;;;;;;;15.80;48.60;;;;;;10317283;28;94415;-62
2024/01/19 05:19:49;;;;;;;;;;;15.80;48.40;;;;;;10319188;28;93098;-63
2024/01/19 05:24:51;;;;;;;;;;;15.80;48.50;;;;;;10319621;28;94409;-62
2024/01/19 05:29:53;;;;;;;;;;;15.70;49.00;;;;;;10320530;28;94617;-62
2024/01/19 05:34:55;;;;;;;;;;;15.70;49.30;;;;;;10318988;28;95877;-62
2024/01/19 05:39:57;;;;;;;;;;;15.80;49.10;;;;;;10314694;28;93061;-63
2024/01/19 05:44:59;;;;;;;;;;;15.90;49.10;;;;;;10315382;28;93744;-63
2024/01/19 05:50:00;;;;;;;;;;;16.00;49.00;;;;;;10320820;28;93773;-63
2024/01/19 05:55:02;;;;;;;;;;;16.20;48.80;;;;;;10320056;28;93445;-62
2024/01/19 06:00:05;;;;;;;;;;;16.50;48.40;;;;;;10319928;28;93926;-62
2024/01/19 06:05:07;;;;;;;;;;;16.70;47.80;;;;;;10309451;28;94075;-62
2024/01/19 06:10:09;;;;;;;;;;;16.90;47.60;;;;;;10326295;28;93426;-63
2024/01/19 06:15:11;;;;;;;;;;;17.10;47.20;;;;;;10330398;28;94059;-62
2024/01/19 06:20:13;;;;;;;;;;;17.20;47.10;;;;;;10331429;28;93552;-62
2024/01/19 06:25:14;;;;;;;;;;;17.30;46.90;;;;;;10324672;28;95854;-63
2024/01/19 06:30:16;;;;;;;;;;;17.30;46.80;;;;;;10331548;28;93577;-62
2024/01/19 06:35:18;;;;;;;;;;;17.30;46.80;;;;;;10328640;28;93933;-62
2024/01/19 06:40:29;;;;;;;;;;;17.20;46.90;;;;;;10332567;28;94112;-62
2024/01/19 06:45:31;;;;;;;;;;;17.20;47.60;;;;;;10334136;28;93626;-62
2024/01/19 06:50:33;;;;;;;;;;;17.10;48.70;;;;;;10329504;28;93713;-63
2024/01/19 06:55:35;;;;;;;;;;;17.20;48.10;;;;;;10335134;28;93467;-64
2024/01/19 07:00:38;;;;;;;;;;;17.30;48.60;;;;;;10332043;28;93336;-64
2024/01/19 07:05:42;;;;;;;;;;;17.40;50.00;;;;;;10330551;28;94495;-64
2024/01/19 07:10:44;;;;;;;;;;;17.60;50.00;;;;;;10325599;28;94372;-63
2024/01/19 07:15:46;;;;;;;;;;;17.70;50.20;;;;;;10321759;28;96882;-63
2024/01/19 07:20:48;;;;;;;;;;;17.80;49.80;;;;;;10297335;28;94424;-62
2024/01/19 07:25:51;;;;;;;;;;;17.70;49.60;;;;;;10308585;28;93809;-64
2024/01/19 07:30:53;;;;;;;;;;;17.50;49.40;;;;;;10298010;28;92999;-62
2024/01/19 07:35:55;;;;;;;;;;;17.50;49.60;;;;;;10322814;28;94389;-63
2024/01/19 07:40:58;;;;;;;;;;;17.50;49.60;;;;;;10321926;28;94811;-63
2024/01/19 07:46:00;;;;;;;;;;;17.50;49.40;;;;;;10322362;28;92579;-63
2024/01/19 07:51:03;;;;;;;;;;;17.50;49.50;;;;;;10325580;28;93066;-62
2024/01/19 07:56:05;;;;;;;;;;;17.30;50.60;;;;;;10327543;28;94196;-61
2024/01/19 08:01:07;;;;;;;;;;;17.30;49.60;;;;;;10318767;28;93475;-62
2024/01/19 08:06:09;;;;;;;;;;;17.30;49.60;;;;;;10315148;28;97015;-61
2024/01/19 08:11:11;;;;;;;;;;;17.40;49.40;;;;;;10326225;28;93924;-62
2024/01/19 08:16:13;;;;;;;;;;;17.50;49.60;;;;;;10325535;28;93462;-62
2024/01/19 08:21:14;;;;;;;;;;;17.60;48.90;;;;;;10328222;28;93498;-62
2024/01/19 08:26:21;;;;;;;;;;;17.70;48.60;;;;;;10331914;28;114429;-62
2024/01/19 08:31:24;;;;;;;;;;;17.70;48.50;;;;;;10318026;28;93233;-62
2024/01/19 08:36:26;;;;;;;;;;;17.60;48.20;;;;;;10325363;28;94534;-61
2024/01/19 08:41:28;;;;;;;;;;;17.60;48.40;;;;;;10328968;28;92668;-61
2024/01/19 08:46:30;;;;;;;;;;;17.50;48.40;;;;;;10317275;28;94663;-62
2024/01/19 08:51:32;;;;;;;;;;;17.60;48.30;;;;;;10330887;28;95677;-62
2024/01/19 08:56:35;;;;;;;;;;;17.60;48.20;;;;;;10322058;28;96816;-62
2024/01/19 09:01:46;;;;;;;;;;;17.70;48.00;;;;;;10317888;28;95081;-62
2024/01/19 09:06:48;;;;;;;;;;;17.60;47.80;;;;;;10320375;28;94493;-62
2024/01/19 09:11:50;;;;;;;;;;;17.60;47.90;;;;;;10322778;28;94601;-62
2024/01/19 09:16:52;;;;;;;;;;;17.50;47.90;;;;;;10323911;28;95144;-62
2024/01/19 09:21:54;;;;;;;;;;;17.40;48.10;;;;;;10324214;28;94828;-62
2024/01/19 09:26:55;;;;;;;;;;;17.50;48.20;;;;;;10323173;28;94276;-62
2024/01/19 09:31:57;;;;;;;;;;;17.50;48.00;;;;;;10326319;28;94001;-62
2024/01/19 09:36:59;;;;;;;;;;;17.60;47.90;;;;;;10319704;28;93346;-63
2024/01/19 09:42:07;;;;;;;;;;;17.70;47.70;;;;;;10311792;28;94013;-61
2024/01/19 09:47:17;;;;;;;;;;;17.70;47.70;;;;;;10316422;28;96273;-62
2024/01/19 09:52:21;;;;;;;;;;;17.60;48.10;;;;;;10323433;28;95400;-63
2024/01/19 09:57:27;;;;;;;;;;;17.60;48.00;;;;;;10316641;28;94418;-62
2024/01/19 10:02:30;;;;;;;;;;;17.50;47.90;;;;;;10319716;28;94559;-63
2024/01/19 10:07:32;;;;;;;;;;;17.60;47.90;;;;;;10311261;28;93478;-62
2024/01/19 10:12:34;;;;;;;;;;;17.70;47.80;;;;;;10321238;28;94589;-62
2024/01/19 10:17:36;;;;;;;;;;;17.60;47.80;;;;;;10303810;28;94634;-62
2024/01/19 10:22:39;;;;;;;;;;;17.50;47.80;;;;;;10320025;28;93883;-62
2024/01/19 10:27:45;;;;;;;;;;;17.50;48.00;;;;;;10317499;28;94439;-61
2024/01/19 10:32:49;;;;;;;;;;;17.50;48.10;;;;;;10328452;28;95317;-62
2024/01/19 10:37:50;;;;;;;;;;;17.60;48.00;;;;;;10325098;28;96177;-62
2024/01/19 10:42:54;;;;;;;;;;;17.60;47.90;;;;;;10325672;28;93827;-62
2024/01/19 10:47:58;;;;;;;;;;;17.60;47.80;;;;;;10320713;28;94331;-63
2024/01/19 10:53:01;;;;;;;;;;;17.50;47.80;;;;;;10331339;28;94049;-62
2024/01/19 10:58:03;;;;;;;;;;;17.50;48.10;;;;;;10324507;28;95525;-63
2024/01/19 11:03:08;;;;;;;;;;;17.50;48.10;;;;;;10324368;28;94066;-62
2024/01/19 11:08:10;;;;;;;;;;;17.60;48.20;;;;;;10326915;28;93413;-62
2024/01/19 11:13:13;;;;;;;;;;;17.60;48.00;;;;;;10324664;28;93286;-62
2024/01/19 11:18:15;;;;;;;;;;;17.60;47.90;;;;;;10327916;28;92930;-62
2024/01/19 11:23:17;;;;;;;;;;;17.60;47.90;;;;;;10322135;28;94965;-62
2024/01/19 11:28:37;;;;;;;;;;;17.50;48.00;;;;;;10324789;28;96741;-62
2024/01/19 11:33:39;;;;;;;;;;;17.50;48.20;;;;;;10323033;28;93680;-62
2024/01/19 11:38:45;;;;;;;;;;;17.50;48.20;;;;;;10324587;28;94432;-63
2024/01/19 11:43:47;;;;;;;;;;;17.50;48.20;;;;;;10325493;28;94040;-63
2024/01/19 11:48:49;;;;;;;;;;;17.60;48.20;;;;;;10317382;28;94591;-63
2024/01/19 11:53:55;;;;;;;;;;;17.70;48.10;;;;;;10317082;28;93492;-63
2024/01/19 11:58:58;;;;;;;;;;;17.80;48.10;;;;;;10324472;28;93518;-63
2024/01/19 12:04:00;;;;;;;;;;;18.00;48.40;;;;;;10322104;28;93271;-63
2024/01/19 12:09:05;;;;;;;;;;;18.10;48.30;;;;;;10320458;28;93522;-63
2024/01/19 12:14:09;;;;;;;;;;;18.10;48.70;;;;;;10325314;28;94183;-63
2024/01/19 12:19:13;;;;;;;;;;;18.20;48.90;;;;;;10320931;28;96797;-63
2024/01/19 12:24:19;;;;;;;;;;;18.20;48.80;;;;;;10319524;28;94977;-63
2024/01/19 12:29:31;;;;;;;;;;;18.20;49.00;;;;;;10320099;28;93859;-63
2024/01/19 12:34:32;;;;;;;;;;;18.20;49.30;;;;;;10319999;28;92927;-63
2024/01/19 12:39:34;;;;;;;;;;;18.10;49.40;;;;;;10325661;28;93589;-64
2024/01/19 12:44:36;;;;;;;;;;;18.00;49.60;;;;;;10332743;28;94449;-62
2024/01/19 12:49:38;;;;;;;;;;;18.00;49.80;;;;;;10332021;28;93428;-63
2024/01/19 12:54:53;;;;;;;;;;;18.10;49.80;;;;;;10332336;28;92690;-63
2024/01/19 13:00:08;;;;;;;;;;;18.00;49.90;;;;;;10336536;28;92841;-61
2024/01/19 13:05:20;;;;;;;;;;;18.00;50.00;;;;;;10319738;28;93193;-63
2024/01/19 13:10:22;;;;;;;;;;;17.90;50.10;;;;;;10326535;28;95509;-63
2024/01/19 13:15:24;;;;;;;;;;;17.90;50.20;;;;;;10322816;28;94191;-61
2024/01/19 13:20:26;;;;;;;;;;;18.00;50.30;;;;;;10315344;28;93965;-62
2024/01/19 13:25:28;;;;;;;;;;;18.10;50.00;;;;;;10324053;28;94107;-63
2024/01/19 13:30:30;;;;;;;;;;;18.20;49.80;;;;;;10319458;28;93611;-62
2024/01/19 13:35:32;;;;;;;;;;;18.20;49.50;;;;;;10322185;28;93118;-62
2024/01/19 13:40:34;;;;;;;;;;;18.30;49.40;;;;;;10332591;28;94460;-62
2024/01/19 13:45:35;;;;;;;;;;;18.20;49.40;;;;;;10314338;28;92803;-62
2024/01/19 13:50:37;;;;;;;;;;;18.20;49.40;;;;;;10299335;28;94730;-62
2024/01/19 13:55:39;;;;;;;;;;;18.20;49.50;;;;;;10310630;28;93252;-62
2024/01/19 14:00:41;;;;;;;;;;;18.20;49.40;;;;;;10322711;28;96042;-62
2024/01/19 14:05:45;;;;;;;;;;;18.20;49.50;;;;;;10324094;28;93705;-63
2024/01/19 14:10:48;;;;;;;;;;;18.20;49.50;;;;;;10341526;28;94332;-62
2024/01/19 14:15:51;;;;;;;;;;;18.30;49.40;;;;;;10325804;28;93053;-63
2024/01/19 14:20:55;;;;;;;;;;;18.50;49.40;;;;;;10326038;28;93502;-62
2024/01/19 14:26:00;;;;;;;;;;;18.50;49.00;;;;;;10321818;28;93524;-62
2024/01/19 14:31:02;;;;;;;;;;;18.60;50.30;;;;;;10324398;28;93810;-63
2024/01/19 14:36:05;;;;;;;;;;;18.60;50.20;;;;;;10329076;28;92976;-63
2024/01/19 14:41:07;;;;;;;;;;;18.60;50.20;;;;;;10334269;28;94455;-62
2024/01/19 14:46:09;;;;;;;;;;;18.60;50.10;;;;;;10329298;28;93380;-63
2024/01/19 14:51:11;;;;;;;;;;;18.70;50.80;;;;;;10329280;28;96442;-63
2024/01/19 14:56:14;;;;;;;;;;;18.70;51.50;;;;;;10332634;28;92714;-63
2024/01/19 15:01:16;;;;;;;;;;;18.90;52.10;;;;;;10331188;28;95351;-63
2024/01/19 15:06:18;;;;;;;;;;;19.00;51.80;;;;;;10331695;28;94197;-63
2024/01/19 15:11:20;;;;;;;;;;;19.10;51.30;;;;;;10335760;28;94757;-63
2024/01/19 15:16:22;;;;;;;;;;;19.10;51.00;;;;;;10331960;28;94571;-63
2024/01/19 15:21:23;;;;;;;;;;;19.10;50.80;;;;;;10319826;28;94461;-62
2024/01/19 15:26:25;;;;;;;;;;;19.00;50.70;;;;;;10315790;28;93077;-62
2024/01/19 15:31:27;;;;;;;;;;;18.90;50.20;;;;;;10327615;28;93740;-62
2024/01/19 15:36:29;;;;;;;;;;;19.00;50.10;;;;;;10324928;28;93762;-62
2024/01/19 15:41:31;;;;;;;;;;;19.00;49.90;;;;;;10323152;28;96074;-62
2024/01/19 15:46:33;;;;;;;;;;;19.10;49.60;;;;;;10321453;28;94877;-63
2024/01/19 15:51:35;;;;;;;;;;;19.20;49.40;;;;;;10326743;28;94438;-63
2024/01/19 15:56:37;;;;;;;;;;;19.20;49.10;;;;;;10317270;28;95105;-63
2024/01/19 16:01:39;;;;;;;;;;;19.30;48.80;;;;;;10322051;28;94146;-62
2024/01/19 16:06:42;;;;;;;;;;;19.40;48.60;;;;;;10323313;28;93364;-63
2024/01/19 16:11:48;;;;;;;;;;;19.40;48.40;;;;;;10325654;28;95069;-63
2024/01/19 16:16:52;;;;;;;;;;;19.30;48.40;;;;;;10317912;28;93321;-63
2024/01/19 16:21:56;;;;;;;;;;;19.20;48.40;;;;;;10306658;28;94532;-64
2024/01/19 16:26:57;;;;;;;;;;;19.20;48.40;;;;;;10318620;28;94127;-64
2024/01/19 16:31:59;;;;;;;;;;;19.20;48.50;;;;;;10303057;28;95843;-63
2024/01/19 16:37:01;;;;;;;;;;;19.40;48.50;;;;;;10317507;28;93757;-62
2024/01/19 16:42:05;;;;;;;;;;;19.50;48.40;;;;;;10309383;28;94084;-62
2024/01/19 16:47:08;;;;;;;;;;;19.60;48.60;;;;;;10325036;28;95727;-62
2024/01/19 16:52:20;;;;;;;;;;;19.70;48.80;;;;;;10323603;28;93403;-62
2024/01/19 16:57:22;;;;;;;;;;;19.70;48.60;;;;;;10318311;28;94749;-62
2024/01/19 17:02:24;;;;;;;;;;;19.70;49.70;;;;;;10311632;28;94067;-62
2024/01/19 17:07:26;;;;;;;;;;;19.80;56.40;;;;;;10316374;28;93870;-63
2024/01/19 17:12:29;;;;;;;;;;;20.00;52.30;;;;;;10317442;28;93591;-62
2024/01/19 17:17:30;;;;;;;;;;;20.00;52.90;;;;;;10303340;28;93458;-62
2024/01/19 17:22:32;;;;;;;;;;;19.90;54.20;;;;;;10313882;28;97254;-62
2024/01/19 17:27:35;;;;;;;;;;;20.00;55.80;;;;;;10319393;28;94391;-62
2024/01/19 17:32:37;;;;;;;;;;;19.90;54.40;;;;;;10319814;28;94471;-62
2024/01/19 17:37:39;;;;;;;;;;;19.70;54.40;;;;;;10310708;28;94339;-62
2024/01/19 17:42:40;;;;;;;;;;;19.50;54.90;;;;;;10319329;28;93409;-62
2024/01/19 17:47:42;;;;;;;;;;;19.30;55.10;;;;;;10323697;28;93688;-63
2024/01/19 17:52:45;;;;;;;;;;;19.20;55.30;;;;;;10320496;28;94170;-62
2024/01/19 17:57:50;;;;;;;;;;;19.10;55.50;;;;;;10328915;28;93676;-62
2024/01/19 18:02:52;;;;;;;;;;;19.00;55.70;;;;;;10322964;28;94270;-61
2024/01/19 18:07:53;;;;;;;;;;;18.90;55.70;;;;;;10328576;28;94504;-61
2024/01/19 18:12:55;;;;;;;;;;;18.80;55.80;;;;;;10322062;28;95863;-62
2024/01/19 18:17:57;;;;;;;;;;;18.80;55.80;;;;;;10328768;28;93403;-62
2024/01/19 18:22:59;;;;;;;;;;;18.90;56.00;;;;;;10329306;28;94459;-63
2024/01/19 18:28:01;;;;;;;;;;;19.00;55.70;;;;;;10327848;28;95713;-62
2024/01/19 18:33:03;;;;;;;;;;;19.10;55.60;;;;;;10324900;28;94590;-62
2024/01/19 18:38:05;;;;;;;;;;;19.10;55.50;;;;;;10325613;28;92645;-63
2024/01/19 18:43:07;;;;;;;;;;;19.10;55.90;;;;;;10314573;28;94799;-62
2024/01/19 18:48:10;;;;;;;;;;;19.00;56.40;;;;;;10326204;28;93698;-62
2024/01/19 18:53:13;;;;;;;;;;;19.10;56.60;;;;;;10318700;28;93305;-63
2024/01/19 18:58:14;;;;;;;;;;;19.20;56.30;;;;;;10337015;28;93221;-63
2024/01/19 19:03:16;;;;;;;;;;;19.20;56.10;;;;;;10324538;28;95827;-62
2024/01/19 19:08:19;;;;;;;;;;;19.20;56.10;;;;;;10321459;28;94289;-62
2024/01/19 19:13:22;;;;;;;;;;;19.10;56.10;;;;;;10324947;28;93014;-63
2024/01/19 19:18:24;;;;;;;;;;;19.20;55.90;;;;;;10328372;28;94159;-63
2024/01/19 19:23:26;;;;;;;;;;;19.20;55.70;;;;;;10314590;28;94577;-63
2024/01/19 19:28:28;;;;;;;;;;;19.30;55.10;;;;;;10320624;28;95167;-64
2024/01/19 19:33:30;;;;;;;;;;;19.30;54.90;;;;;;10320710;28;93726;-64
2024/01/19 19:38:32;;;;;;;;;;;19.20;54.90;;;;;;10322390;28;92881;-64
2024/01/19 19:43:34;;;;;;;;;;;19.20;55.00;;;;;;10316013;28;96351;-63
2024/01/19 19:48:36;;;;;;;;;;;19.30;54.90;;;;;;10322192;28;93474;-62
2024/01/19 19:53:40;;;;;;;;;;;19.40;54.60;;;;;;10320471;28;95871;-63
2024/01/19 19:58:43;;;;;;;;;;;19.40;54.40;;;;;;10324764;28;94460;-63
2024/01/19 20:03:45;;;;;;;;;;;19.40;54.20;;;;;;10325220;28;95608;-62
2024/01/19 20:08:47;;;;;;;;;;;19.40;54.30;;;;;;10322248;28;94418;-62
2024/01/19 20:13:50;;;;;;;;;;;19.40;54.40;;;;;;10318592;28;94391;-63
2024/01/19 20:18:52;;;;;;;;;;;19.40;54.30;;;;;;10311208;28;93847;-63
2024/01/19 20:23:55;;;;;;;;;;;19.40;54.00;;;;;;10317884;28;94503;-63
2024/01/19 20:28:56;;;;;;;;;;;19.40;53.90;;;;;;10322130;28;92356;-63
2024/01/19 20:33:58;;;;;;;;;;;19.30;55.10;;;;;;10320114;28;93302;-62
2024/01/19 20:39:04;;;;;;;;;;;19.30;55.20;;;;;;10316644;28;92683;-62
2024/01/19 20:44:09;;;;;;;;;;;19.30;56.30;;;;;;10324068;28;96572;-62
2024/01/19 20:49:11;;;;;;;;;;;19.30;56.70;;;;;;10333162;28;93499;-62
2024/01/19 20:54:12;;;;;;;;;;;19.20;57.30;;;;;;10330178;28;93571;-61
2024/01/19 20:59:15;;;;;;;;;;;19.20;57.10;;;;;;10329725;28;93212;-61
2024/01/19 21:04:19;;;;;;;;;;;19.00;55.70;;;;;;10336849;28;95533;-61
2024/01/19 21:09:21;;;;;;;;;;;18.90;55.60;;;;;;10365354;28;92440;-62
2024/01/19 21:14:24;;;;;;;;;;;18.80;55.40;;;;;;10370843;28;92838;-62
2024/01/19 21:19:26;;;;;;;;;;;18.70;55.30;;;;;;10372517;28;92703;-62
2024/01/19 21:24:29;;;;;;;;;;;18.60;55.30;;;;;;10355317;28;93066;-62
2024/01/19 21:29:31;;;;;;;;;;;18.50;55.40;;;;;;10334853;28;93805;-62
2024/01/19 21:34:33;;;;;;;;;;;18.40;55.30;;;;;;10323404;28;95827;-62
2024/01/19 21:39:35;;;;;;;;;;;18.30;55.20;;;;;;10325948;28;93493;-62
2024/01/19 21:44:37;;;;;;;;;;;18.20;55.30;;;;;;10326368;28;94455;-62
2024/01/19 21:49:39;;;;;;;;;;;18.10;55.40;;;;;;10321893;28;93563;-62
2024/01/19 21:54:42;;;;;;;;;;;18.00;55.30;;;;;;10326108;28;94520;-62
2024/01/19 21:59:44;;;;;;;;;;;17.90;55.30;;;;;;10321103;28;92900;-63
2024/01/19 22:04:46;;;;;;;;;;;17.90;55.70;;;;;;10319786;28;94974;-62
2024/01/19 22:09:48;;;;;;;;;;;17.80;55.90;;;;;;10317056;28;93877;-62
2024/01/19 22:14:51;;;;;;;;;;;17.70;55.90;;;;;;10320115;28;93756;-63
2024/01/19 22:19:53;;;;;;;;;;;17.70;55.90;;;;;;10314199;28;93710;-62
2024/01/19 22:24:55;;;;;;;;;;;17.60;55.90;;;;;;10313466;28;96267;-63
2024/01/19 22:29:57;;;;;;;;;;;17.60;56.00;;;;;;10329850;28;94195;-63
2024/01/19 22:34:59;;;;;;;;;;;17.60;56.10;;;;;;10329240;28;94094;-63
2024/01/19 22:40:01;;;;;;;;;;;17.70;55.90;;;;;;10330303;28;93969;-64
2024/01/19 22:45:06;;;;;;;;;;;17.80;55.70;;;;;;10330951;28;93663;-65
2024/01/19 22:50:08;;;;;;;;;;;18.00;55.30;;;;;;10326639;28;94350;-63
2024/01/19 22:55:14;;;;;;;;;;;18.20;54.90;;;;;;10332515;28;94501;-63
2024/01/19 23:00:17;;;;;;;;;;;18.30;54.70;;;;;;10330220;28;93202;-63
2024/01/19 23:05:19;;;;;;;;;;;18.40;54.40;;;;;;10341900;28;93771;-63
2024/01/19 23:10:22;;;;;;;;;;;18.50;54.20;;;;;;10335806;28;93885;-63
2024/01/19 23:15:26;;;;;;;;;;;18.40;53.90;;;;;;10332700;28;95946;-63
2024/01/19 23:20:28;;;;;;;;;;;18.40;53.90;;;;;;10342405;28;93346;-63
2024/01/19 23:25:36;;;;;;;;;;;18.40;53.90;;;;;;10333725;28;95024;-63
2024/01/19 23:31:02;;;;;;;;;;;18.30;53.90;;;;;;10331133;28;94499;-63
2024/01/19 23:36:04;;;;;;;;;;;18.20;53.90;;;;;;10310945;28;94523;-63
2024/01/19 23:41:07;;;;;;;;;;;18.10;54.30;;;;;;10328434;28;93598;-63
2024/01/19 23:46:09;;;;;;;;;;;18.00;54.10;;;;;;10320243;28;93487;-63
2024/01/19 23:51:11;;;;;;;;;;;18.00;53.70;;;;;;10328006;28;92633;-62
2024/01/19 23:56:13;;;;;;;;;;;17.90;53.50;;;;;;10328453;28;93498;-63
